createdAt,value
2018-04-07T14:48:04.435Z,23.50
2018-04-07T14:48:42.448Z,24.50
2018-04-07T14:49:16.009Z,25.40
2018-04-07T14:50:50.423Z,26.40
2018-04-07T14:51:59.026Z,26.30
2018-04-07T14:53:07.779Z,26.90
2018-04-07T14:54:16.499Z,27.10
2018-04-07T14:55:27.307Z,26.90
2018-04-07T14:56:36.163Z,27.00
2018-04-07T14:57:44.935Z,26.30
2018-04-07T14:58:53.623Z,25.90
2018-04-07T15:00:02.526Z,26.10
2018-04-07T15:01:11.892Z,26.00
2018-04-07T15:02:20.709Z,26.20
2018-04-07T15:03:30.390Z,26.50
2018-04-07T15:04:39.325Z,26.60
2018-04-07T15:05:52.173Z,26.30
2018-04-07T15:07:01.053Z,25.70
2018-04-07T15:08:10.488Z,25.80
2018-04-07T15:09:19.183Z,25.80
2018-04-07T15:10:28.071Z,26.10
2018-04-07T15:11:36.810Z,25.70
2018-04-07T15:12:50.417Z,24.40
2018-04-07T15:14:00.084Z,24.50
2018-04-07T15:15:13.015Z,24.90
2018-04-07T15:16:23.800Z,26.00
2018-04-07T15:17:33.677Z,26.00
2018-04-07T15:18:43.205Z,26.60
2018-04-07T15:19:52.786Z,26.30
2018-04-07T15:21:01.700Z,26.10
2018-04-07T15:22:10.347Z,26.50
2018-04-07T15:23:20.050Z,26.60
2018-04-07T15:24:29.463Z,26.70
2018-04-07T15:25:38.067Z,26.50
2018-04-07T15:26:47.790Z,26.40
2018-04-07T15:27:56.485Z,26.30
2018-04-07T15:29:06.146Z,26.40
2018-04-07T15:30:15.011Z,26.30
2018-04-07T15:31:23.958Z,26.70
2018-04-07T15:32:32.637Z,27.10
2018-04-07T15:33:42.306Z,26.10
2018-04-07T15:34:55.946Z,26.30
2018-04-07T15:36:04.915Z,26.30
2018-04-07T15:37:13.650Z,26.10
2018-04-07T15:38:22.397Z,24.60
2018-04-07T15:39:32.177Z,24.50
2018-04-07T15:40:41.663Z,24.00
2018-04-07T15:41:50.378Z,24.00
2018-04-07T15:42:59.203Z,23.60
2018-04-07T15:44:07.959Z,23.00
2018-04-07T15:45:16.809Z,23.00
2018-04-07T15:46:26.301Z,22.60
2018-04-07T15:47:35.340Z,22.60
2018-04-07T15:48:45.784Z,22.90
2018-04-07T15:49:56.657Z,22.90
2018-04-07T15:51:10.677Z,23.20
2018-04-07T15:52:20.252Z,23.20
2018-04-07T15:53:29.381Z,22.90
2018-04-07T15:54:38.548Z,22.70
2018-04-07T15:55:48.484Z,22.60
2018-04-07T15:56:57.388Z,22.50
2018-04-07T15:58:11.534Z,22.50
2018-04-07T15:59:20.296Z,22.50
2018-04-07T16:00:29.127Z,22.30
2018-04-07T16:01:42.322Z,22.00
2018-04-07T16:02:51.088Z,22.00
2018-04-07T16:04:00.658Z,22.00
2018-04-07T16:05:15.545Z,21.90
2018-04-07T16:06:24.284Z,21.90
2018-04-07T16:07:38.056Z,21.70
2018-04-07T16:08:47.861Z,21.70
2018-04-07T16:09:56.639Z,21.80
2018-04-07T16:11:05.707Z,21.90
2018-04-07T16:12:15.482Z,21.70
2018-04-07T16:13:28.650Z,21.90
2018-04-07T16:14:37.620Z,21.90
2018-04-07T16:15:47.458Z,21.80
2018-04-07T16:16:56.514Z,21.80
2018-04-07T16:18:05.368Z,22.00
2018-04-07T16:19:14.423Z,21.90
2018-04-07T16:20:23.201Z,21.80
2018-04-07T16:21:32.184Z,21.70
2018-04-07T16:22:41.029Z,21.80
2018-04-07T16:23:49.780Z,21.80
2018-04-07T16:24:58.624Z,21.80
2018-04-07T16:26:07.272Z,21.70
2018-04-07T16:27:16.121Z,21.80
2018-04-07T16:28:25.134Z,21.90
2018-04-07T16:29:34.160Z,21.60
2018-04-07T16:30:43.141Z,21.60
2018-04-07T16:31:52.081Z,21.60
2018-04-07T16:33:02.366Z,21.50
2018-04-07T16:34:22.633Z,21.50
2018-04-07T16:35:31.400Z,21.30
2018-04-07T16:36:40.355Z,21.10
2018-04-07T16:37:49.363Z,21.00
2018-04-07T16:38:58.178Z,20.80
2018-04-07T16:40:07.774Z,20.50
2018-04-07T16:41:16.966Z,20.50
2018-04-07T16:42:26.376Z,20.60
2018-04-07T16:43:35.237Z,20.60
2018-04-07T16:44:44.089Z,20.20
2018-04-07T16:45:52.954Z,20.30
2018-04-07T16:47:01.827Z,20.20
2018-04-07T16:48:10.579Z,20.20
2018-04-07T16:49:19.546Z,20.20
2018-04-07T16:50:28.387Z,20.20
2018-04-07T16:51:37.851Z,20.10
2018-04-07T16:52:46.570Z,20.10
2018-04-07T16:53:55.453Z,20.10
2018-04-07T16:55:04.347Z,20.20
2018-04-07T16:56:13.115Z,20.00
2018-04-07T16:57:22.878Z,20.00
2018-04-07T16:58:31.637Z,20.00
2018-04-07T16:59:40.394Z,20.00
2018-04-07T17:00:49.114Z,20.00
2018-04-07T17:01:57.983Z,20.10
2018-04-07T17:03:06.804Z,20.00
2018-04-07T17:04:15.539Z,20.00
2018-04-07T17:05:24.329Z,20.00
2018-04-07T17:06:33.218Z,20.10
2018-04-07T17:07:42.888Z,20.10
2018-04-07T17:08:51.722Z,20.10
2018-04-07T17:10:02.237Z,19.80
2018-04-07T17:11:11.104Z,19.80
2018-04-07T17:12:20.015Z,19.70
2018-04-07T17:13:28.961Z,19.80
2018-04-07T17:14:37.952Z,19.80
2018-04-07T17:15:46.712Z,19.70
2018-04-07T17:16:55.503Z,19.70
2018-04-07T17:18:04.445Z,19.70
2018-04-07T17:19:13.765Z,19.70
2018-04-07T17:20:22.474Z,19.70
2018-04-07T17:21:31.329Z,19.70
2018-04-07T17:22:40.301Z,19.70
2018-04-07T17:23:48.972Z,19.60
2018-04-07T17:24:57.739Z,19.70
2018-04-07T17:26:07.462Z,19.90
2018-04-07T17:27:16.406Z,19.80
2018-04-07T17:28:25.081Z,19.80
2018-04-07T17:29:33.925Z,19.80
2018-04-07T17:30:42.871Z,19.90
2018-04-07T17:31:51.516Z,19.80
2018-04-07T17:33:00.324Z,19.80
2018-04-07T17:34:10.603Z,19.80
2018-04-07T17:35:19.534Z,19.80
2018-04-07T17:36:28.533Z,19.70
2018-04-07T17:37:37.250Z,19.70
2018-04-07T17:38:46.045Z,19.80
2018-04-07T17:39:55.412Z,19.80
2018-04-07T17:41:04.229Z,19.80
2018-04-07T17:42:12.990Z,19.80
2018-04-07T17:43:21.801Z,19.70
2018-04-07T17:44:30.640Z,19.80
2018-04-07T17:45:39.452Z,19.90
2018-04-07T17:46:48.470Z,19.90
2018-04-07T17:47:57.371Z,19.80
2018-04-07T17:49:06.454Z,19.80
2018-04-07T17:50:15.829Z,19.60
2018-04-07T17:51:24.584Z,19.60
2018-04-07T17:52:33.445Z,19.60
2018-04-07T17:53:42.433Z,19.50
2018-04-07T17:54:51.227Z,19.40
2018-04-07T17:56:00.121Z,19.40
2018-04-07T17:57:08.745Z,19.50
2018-04-07T17:58:17.602Z,19.40
2018-04-07T17:59:26.405Z,19.30
2018-04-07T18:00:35.418Z,19.30
2018-04-07T18:01:44.226Z,19.30
2018-04-07T18:02:52.926Z,19.30
2018-04-07T18:04:01.958Z,19.40
2018-04-07T18:05:10.818Z,19.30
2018-04-07T18:06:20.402Z,19.30
2018-04-07T18:07:29.382Z,19.20
2018-04-07T18:08:38.033Z,19.20
2018-04-07T18:09:46.730Z,19.20
2018-04-07T18:10:55.552Z,19.30
2018-04-07T18:12:05.080Z,19.20
2018-04-07T18:13:13.881Z,19.20
2018-04-07T18:14:22.593Z,19.20
2018-04-07T18:15:31.472Z,19.20
2018-04-07T18:16:40.368Z,19.30
2018-04-07T18:17:49.099Z,19.30
2018-04-07T18:18:57.901Z,19.40
2018-04-07T18:20:06.987Z,19.40
2018-04-07T18:21:16.454Z,19.40
2018-04-07T18:22:25.191Z,19.40
2018-04-07T18:23:35.006Z,19.40
2018-04-07T18:24:43.765Z,19.40
2018-04-07T18:25:53.010Z,19.40
2018-04-07T18:27:01.698Z,19.30
2018-04-07T18:28:11.186Z,19.30
2018-04-07T18:29:19.986Z,19.30
2018-04-07T18:30:28.802Z,19.30
2018-04-07T18:31:38.393Z,19.40
2018-04-07T18:32:47.272Z,19.40
2018-04-07T18:33:56.771Z,19.40
2018-04-07T18:35:05.732Z,19.30
2018-04-07T18:36:14.487Z,19.30
2018-04-07T18:37:23.926Z,19.30
2018-04-07T18:38:32.886Z,19.20
2018-04-07T18:39:41.712Z,19.30
2018-04-07T18:40:50.749Z,19.30
2018-04-07T18:41:59.461Z,19.30
2018-04-07T18:43:09.796Z,19.20
2018-04-07T18:44:18.648Z,19.20
2018-04-07T18:45:27.566Z,19.20
2018-04-07T18:46:37.194Z,19.20
2018-04-07T18:47:45.797Z,19.20
2018-04-07T18:48:54.616Z,19.20
2018-04-07T18:50:03.292Z,19.20
2018-04-07T18:51:12.200Z,19.10
2018-04-07T18:52:21.058Z,19.10
2018-04-07T18:53:30.632Z,18.80
2018-04-07T18:54:39.745Z,18.80
2018-04-07T18:55:48.602Z,18.80
2018-04-07T18:56:58.080Z,18.80
2018-04-07T18:58:07.007Z,18.80
2018-04-07T18:59:15.934Z,18.80
2018-04-07T19:00:24.862Z,18.90
2018-04-07T19:01:33.693Z,18.90
2018-04-07T19:02:42.424Z,18.90
2018-04-07T19:03:51.998Z,18.90
2018-04-07T19:05:00.807Z,18.90
2018-04-07T19:06:10.448Z,18.80
2018-04-07T19:07:19.356Z,18.80
2018-04-07T19:08:28.271Z,18.70
2018-04-07T19:09:37.898Z,18.60
2018-04-07T19:10:46.712Z,18.60
2018-04-07T19:11:55.423Z,18.50
2018-04-07T19:13:04.315Z,18.50
2018-04-07T19:14:13.051Z,18.50
2018-04-07T19:15:21.777Z,18.50
2018-04-07T19:16:30.402Z,18.50
2018-04-07T19:17:39.196Z,18.60
2018-04-07T19:18:48.151Z,18.70
2018-04-07T19:19:57.020Z,18.60
2018-04-07T19:21:05.883Z,18.70
2018-04-07T19:22:15.279Z,18.70
2018-04-07T19:23:24.747Z,18.60
2018-04-07T19:24:33.708Z,18.60
2018-04-07T19:25:43.168Z,18.60
2018-04-07T19:26:52.047Z,18.60
2018-04-07T19:28:00.890Z,18.60
2018-04-07T19:29:09.674Z,18.60
2018-04-07T19:30:18.330Z,18.60
2018-04-07T19:31:27.201Z,18.60
2018-04-07T19:32:36.001Z,18.60
2018-04-07T19:33:44.767Z,18.60
2018-04-07T19:34:53.478Z,18.60
2018-04-07T19:36:02.394Z,18.60
2018-04-07T19:37:11.870Z,18.50
2018-04-07T19:38:20.686Z,18.50
2018-04-07T19:39:29.375Z,18.50
2018-04-07T19:40:38.937Z,18.30
2018-04-07T19:41:47.632Z,18.30
2018-04-07T19:42:56.516Z,18.20
2018-04-07T19:44:05.253Z,18.10
2018-04-07T19:45:14.053Z,18.00
2018-04-07T19:46:23.008Z,18.00
2018-04-07T19:47:31.820Z,17.90
2018-04-07T19:48:41.452Z,17.80
2018-04-07T19:49:50.330Z,17.70
2018-04-07T19:50:59.108Z,17.70
2018-04-07T19:52:09.022Z,17.60
2018-04-07T19:53:18.578Z,17.60
2018-04-07T19:54:27.325Z,17.60
2018-04-07T19:55:36.092Z,17.50
2018-04-07T19:56:45.541Z,17.50
2018-04-07T19:57:55.100Z,17.40
2018-04-07T19:59:03.867Z,17.40
2018-04-07T20:00:12.598Z,17.40
2018-04-07T20:01:22.729Z,17.40
2018-04-07T20:02:31.825Z,17.40
2018-04-07T20:03:41.313Z,17.60
2018-04-07T20:04:50.862Z,17.60
2018-04-07T20:05:59.719Z,17.60
2018-04-07T20:07:08.410Z,17.60
2018-04-07T20:08:17.976Z,17.50
2018-04-07T20:09:26.593Z,17.60
2018-04-07T20:10:35.466Z,17.60
2018-04-07T20:11:45.118Z,17.50
2018-04-07T20:12:53.846Z,17.50
2018-04-07T20:14:02.826Z,17.60
2018-04-07T20:15:11.475Z,17.50
2018-04-07T20:16:20.488Z,17.50
2018-04-07T20:17:29.266Z,17.50
2018-04-07T20:18:38.388Z,17.50
2018-04-07T20:19:47.376Z,17.50
2018-04-07T20:20:57.076Z,17.50
2018-04-07T20:22:06.421Z,17.40
2018-04-07T20:23:16.145Z,17.30
2018-04-07T20:24:24.811Z,17.30
2018-04-07T20:25:34.515Z,17.20
2018-04-07T20:26:44.177Z,17.10
2018-04-07T20:27:52.991Z,17.10
2018-04-07T20:29:01.696Z,17.10
2018-04-07T20:30:10.341Z,17.00
2018-04-07T20:31:19.914Z,16.90
2018-04-07T20:32:29.046Z,16.90
2018-04-07T20:33:38.055Z,16.90
2018-04-07T20:34:46.958Z,16.90
2018-04-07T20:35:56.015Z,16.90
2018-04-07T20:37:05.130Z,16.80
2018-04-07T20:38:14.781Z,16.80
2018-04-07T20:39:23.849Z,16.80
2018-04-07T20:40:33.523Z,16.60
2018-04-07T20:41:42.440Z,16.60
2018-04-07T20:42:51.283Z,16.50
2018-04-07T20:44:00.981Z,16.50
2018-04-07T20:45:10.709Z,16.50
2018-04-07T20:46:19.625Z,16.50
2018-04-07T20:47:28.452Z,16.60
2018-04-07T20:48:38.110Z,16.60
2018-04-07T20:49:46.918Z,16.60
2018-04-07T20:50:55.686Z,16.60
2018-04-07T20:52:05.288Z,16.60
2018-04-07T20:53:14.082Z,16.60
2018-04-07T20:54:23.567Z,16.50
2018-04-07T20:55:32.480Z,16.50
2018-04-07T20:56:41.202Z,16.50
2018-04-07T20:57:50.853Z,16.50
2018-04-07T20:58:59.658Z,16.40
2018-04-07T21:00:08.799Z,16.40
2018-04-07T21:01:17.697Z,16.40
2018-04-07T21:02:26.458Z,16.40
2018-04-07T21:03:36.301Z,16.40
2018-04-07T21:04:45.942Z,16.30
2018-04-07T21:05:54.662Z,16.30
2018-04-07T21:07:03.954Z,16.20
2018-04-07T21:08:12.767Z,16.20
2018-04-07T21:09:21.713Z,16.10
2018-04-07T21:10:30.437Z,16.10
2018-04-07T21:11:39.389Z,16.10
2018-04-07T21:12:48.779Z,16.00
2018-04-07T21:13:57.642Z,15.90
2018-04-07T21:15:06.708Z,16.00
2018-04-07T21:16:15.406Z,15.90
2018-04-07T21:17:24.138Z,15.90
2018-04-07T21:18:33.681Z,15.70
2018-04-07T21:19:42.643Z,15.80
2018-04-07T21:20:51.878Z,15.70
2018-04-07T21:22:00.749Z,15.90
2018-04-07T21:23:10.505Z,16.00
2018-04-07T21:24:19.374Z,15.90
2018-04-07T21:25:28.518Z,16.00
2018-04-07T21:26:38.016Z,15.70
2018-04-07T21:27:46.607Z,15.60
2018-04-07T21:28:56.501Z,15.60
2018-04-07T21:30:06.380Z,15.50
2018-04-07T21:31:15.244Z,15.40
2018-04-07T21:32:24.431Z,15.30
2018-04-07T21:33:33.231Z,15.20
2018-04-07T21:34:42.306Z,15.10
2018-04-07T21:35:51.009Z,15.00
2018-04-07T21:37:00.133Z,15.00
2018-04-07T21:38:09.301Z,15.00
2018-04-07T21:39:18.267Z,14.90
2018-04-07T21:40:27.232Z,14.90
2018-04-07T21:41:35.892Z,15.00
2018-04-07T21:42:47.221Z,14.90
2018-04-07T21:44:00.053Z,15.00
2018-04-07T21:46:36.733Z,15.10
2018-04-07T21:47:46.692Z,15.10
2018-04-07T21:48:59.096Z,15.10
2018-04-07T21:50:31.871Z,14.80
2018-04-07T21:55:46.096Z,14.90
2018-04-07T21:57:18.396Z,14.90
2018-04-07T21:58:31.954Z,14.80
2018-04-07T22:01:59.187Z,14.80
2018-04-07T22:17:47.719Z,14.70
2018-04-07T22:18:59.094Z,14.60
2018-04-07T22:20:09.749Z,14.60
2018-04-07T22:21:19.178Z,14.50
2018-04-07T22:22:29.733Z,14.50
2018-04-07T22:23:38.950Z,14.70
2018-04-07T22:24:48.178Z,14.60
2018-04-07T22:25:58.330Z,14.50
2018-04-07T22:27:09.798Z,14.60
2018-04-07T22:28:22.502Z,14.40
2018-04-07T22:29:41.660Z,14.40
2018-04-07T22:30:53.237Z,14.40
2018-04-07T22:32:02.907Z,14.30
2018-04-07T22:33:12.708Z,14.40
2018-04-07T22:34:22.454Z,14.40
2018-04-07T22:35:33.366Z,14.30
2018-04-07T22:36:43.099Z,14.30
2018-04-07T22:37:52.739Z,14.30
2018-04-07T22:39:03.904Z,14.30
2018-04-07T22:40:21.256Z,14.30
2018-04-07T22:43:05.392Z,14.30
2018-04-07T22:44:40.432Z,14.20
2018-04-07T22:45:52.883Z,14.30
2018-04-07T22:47:07.992Z,14.20
